• Join FlightAware (Why Join?)
  • Login
  • US Flag 
02:03AM EDT


 

Airport Tracker/Info


-or-


 

Live Flight TrackerFlight Track Log ✈ SKW5399 ✈ 29-Jul-2013 ✈ KLAX - KSBP

Flight Track Log - Related Links

Times and Time Zones

All times are in EDT time to prevent confusion due to time zone crossing. See the SKW5399 flight status page for this flight to view local times or setup timezone preferences in your user account.

Time Position Orientation Groundspeed Altitude Reporting Facility
EDT Latitude Longitude Course Direction KTS MPH feet Rate Location/Type
11:56PM 33.9456 -118.4442 287° West 136 157 1,400  Level Los Angeles Center
11:57PM 33.9528 -118.5025 279° West 175 201 2,600 1,260 Climbing Los Angeles Center
11:58PM 33.9692 -118.5717 286° West 197 227 4,100 1,260 Climbing Los Angeles Center
11:59PM 34.0154 -118.6936 284° West  Level FlightAware Approximate
11:59PM 33.9914 -118.6408 291° West 219 252 5,200  Level Los Angeles Center
12:00AM 34.0375 -118.7935 285° West  Level FlightAware Approximate
12:00AM 34.0175 -118.7125 294° West 232 267 6,500  Level Los Angeles Center
12:01AM 34.0662 -118.8906 296° West  Level FlightAware Approximate
12:01AM 34.0425 -118.7900 291° West 231 266 7,700  Level Los Angeles Center
12:02AM 34.0967 -118.9870 287° West  Level FlightAware Approximate
12:02AM 34.0647 -118.8656 290° West 237 273 8,600  Level Los Angeles Center
12:03AM 34.0914 -118.9422 293° West 247 284 9,000 480 Climbing Los Angeles Center
12:05AM 34.1208 -119.0228 294° West 262 302 9,600 1,020 Climbing Los Angeles Center
12:06AM 34.1653 -119.0825 312° West 235 270 11,200 1,260 Climbing Los Angeles Center
12:07AM 34.2061 -119.1433 309° West 234 269 12,200 840 Climbing Los Angeles Center
12:08AM 34.2511 -119.2044 312° West 243 280 13,000 600 Climbing Los Angeles Center
12:09AM 34.2886 -119.2547 312° West 252 290 13,500 480 Climbing Los Angeles Center
12:10AM 34.3536 -119.3508 309° West 266 306 14,000 240 Climbing Los Angeles Center
12:11AM 34.4019 -119.4189 311° West 267 307 14,000  Level Los Angeles Center
12:12AM 34.4511 -119.4864 311° West 267 307 14,000  Level Los Angeles Center
12:13AM 34.4978 -119.5544 310° West 262 302 14,000  Level Los Angeles Center
12:14AM 34.5447 -119.6219 310° West 262 302 14,000  Level Los Angeles Center
12:15AM 34.5925 -119.6897 311° West 264 304 14,000  Level Los Angeles Center
12:16AM 34.6483 -119.7642 312° West 263 303 14,000 -420 Level Los Angeles Center
12:17AM 34.6983 -119.8364 310° West 272 313 13,200 -960 Descending Los Angeles Center
12:18AM 34.7519 -119.9119 311° West 289 333 12,100 -1,080 Descending Los Angeles Center
12:19AM 34.8067 -119.9911 310° West 301 346 11,000 -1,140 Descending Los Angeles Center
12:20AM 34.8606 -120.0689 310° West 303 349 9,800 -1,500 Descending Los Angeles Center
12:21AM 34.9311 -120.1744 309° West 298 343 7,700 -1,560 Descending Los Angeles Center
12:22AM 34.9831 -120.2444 312° West 290 334 6,400 -1,260 Descending Los Angeles Center
12:23AM 35.0339 -120.3200 309° West 281 323 5,200 -780 Descending Los Angeles Center
12:24AM 35.0769 -120.3797 311° West 258 297 5,000 -720 Descending Los Angeles Center
12:25AM 35.1156 -120.4383 309° West 221 254 3,900 -1,020 Descending Los Angeles Center
12:26AM 35.1483 -120.4908 307° West 203 234 3,000 -780 Descending Los Angeles Center
12:27AM 35.1775 -120.5367 308° West 162 186 2,400 -600 Descending Los Angeles Center
12:28AM 35.1986 -120.5747 304° West 143 165 1,800 5,100 Descending Los Angeles Center
12:29AM 35.2208 -120.6139 305° West 142 163 14,000 9,840 Climbing Los Angeles Center